sensor_id;sensor_type;location;lat;lon;timestamp;P1;durP1;ratioP1;P2;durP2;ratioP2
51491;SDS011;37569;50.548;8.778;2023-11-21T00:02:09;10.1;;;7.1;;
51491;SDS011;37569;50.548;8.778;2023-11-21T00:07:09;13.1;;;7.6;;
51491;SDS011;37569;50.548;8.778;2023-11-21T00:12:09;13;;;8.2;;
51491;SDS011;37569;50.548;8.778;2023-11-21T00:17:10;14.6;;;8.4;;
51491;SDS011;37569;50.548;8.778;2023-11-21T00:22:10;12.5;;;8.3;;
51491;SDS011;37569;50.548;8.778;2023-11-21T00:27:11;14.5;;;8.4;;
51491;SDS011;37569;50.548;8.778;2023-11-21T00:32:11;15.2;;;9.5;;
51491;SDS011;37569;50.548;8.778;2023-11-21T00:37:12;13.6;;;8.1;;
51491;SDS011;37569;50.548;8.778;2023-11-21T00:42:12;14.2;;;8.6;;
51491;SDS011;37569;50.548;8.778;2023-11-21T00:47:12;13.8;;;8.5;;
51491;SDS011;37569;50.548;8.778;2023-11-21T00:52:13;15.6;;;8.8;;
51491;SDS011;37569;50.548;8.778;2023-11-21T00:57:13;16.2;;;9.4;;
51491;SDS011;37569;50.548;8.778;2023-11-21T01:02:14;15.8;;;9.1;;
51491;SDS011;37569;50.548;8.778;2023-11-21T01:07:14;16.4;;;9.6;;
51491;SDS011;37569;50.548;8.778;2023-11-21T01:12:14;17.8;;;9.8;;
51491;SDS011;37569;50.548;8.778;2023-11-21T01:17:15;17;;;9.5;;
51491;SDS011;37569;50.548;8.778;2023-11-21T01:22:15;20.1;;;10.5;;
51491;SDS011;37569;50.548;8.778;2023-11-21T01:27:16;21.7;;;11;;
51491;SDS011;37569;50.548;8.778;2023-11-21T01:32:16;16.6;;;10.2;;
51491;SDS011;37569;50.548;8.778;2023-11-21T01:37:16;22.7;;;11.2;;
51491;SDS011;37569;50.548;8.778;2023-11-21T01:42:17;22.9;;;11.7;;
51491;SDS011;37569;50.548;8.778;2023-11-21T01:47:17;22.2;;;11.9;;
51491;SDS011;37569;50.548;8.778;2023-11-21T01:52:18;19.6;;;11.5;;
51491;SDS011;37569;50.548;8.778;2023-11-21T01:57:19;20;;;11;;
51491;SDS011;37569;50.548;8.778;2023-11-21T02:02:18;16.9;;;10.5;;
51491;SDS011;37569;50.548;8.778;2023-11-21T02:07:19;13.2;;;8.6;;
51491;SDS011;37569;50.548;8.778;2023-11-21T02:12:19;6.7;;;5.1;;
51491;SDS011;37569;50.548;8.778;2023-11-21T02:17:20;6.7;;;4;;
51491;SDS011;37569;50.548;8.778;2023-11-21T02:22:20;3;;;2.7;;
51491;SDS011;37569;50.548;8.778;2023-11-21T02:27:20;3.2;;;2.2;;
51491;SDS011;37569;50.548;8.778;2023-11-21T02:32:21;3.7;;;2.3;;
51491;SDS011;37569;50.548;8.778;2023-11-21T02:37:21;4.1;;;2.3;;
51491;SDS011;37569;50.548;8.778;2023-11-21T02:42:22;3.2;;;2;;
51491;SDS011;37569;50.548;8.778;2023-11-21T02:47:22;3.4;;;2.1;;
51491;SDS011;37569;50.548;8.778;2023-11-21T02:52:22;4.4;;;2.2;;
51491;SDS011;37569;50.548;8.778;2023-11-21T02:57:23;3.8;;;2;;
51491;SDS011;37569;50.548;8.778;2023-11-21T03:02:23;4;;;2.5;;
51491;SDS011;37569;50.548;8.778;2023-11-21T03:07:23;4.4;;;2.4;;
51491;SDS011;37569;50.548;8.778;2023-11-21T03:12:24;4.2;;;2.2;;
51491;SDS011;37569;50.548;8.778;2023-11-21T03:17:24;5.3;;;3.1;;
51491;SDS011;37569;50.548;8.778;2023-11-21T03:22:25;5.1;;;2.9;;
51491;SDS011;37569;50.548;8.778;2023-11-21T03:27:25;6.6;;;3.9;;
51491;SDS011;37569;50.548;8.778;2023-11-21T03:32:25;6.2;;;4.1;;
51491;SDS011;37569;50.548;8.778;2023-11-21T03:37:26;6.1;;;3.7;;
51491;SDS011;37569;50.548;8.778;2023-11-21T03:42:26;6.7;;;3.8;;
51491;SDS011;37569;50.548;8.778;2023-11-21T03:47:27;7.1;;;4;;
51491;SDS011;37569;50.548;8.778;2023-11-21T03:52:27;7.1;;;4.8;;
51491;SDS011;37569;50.548;8.778;2023-11-21T03:57:27;6.5;;;4.5;;
51491;SDS011;37569;50.548;8.778;2023-11-21T04:02:28;6.9;;;4.6;;
51491;SDS011;37569;50.548;8.778;2023-11-21T04:07:28;8;;;5.2;;
51491;SDS011;37569;50.548;8.778;2023-11-21T04:12:29;6.8;;;4.9;;
51491;SDS011;37569;50.548;8.778;2023-11-21T04:17:29;7.6;;;4.7;;
51491;SDS011;37569;50.548;8.778;2023-11-21T04:22:29;5.4;;;4.5;;
51491;SDS011;37569;50.548;8.778;2023-11-21T04:27:30;7.3;;;4.9;;
51491;SDS011;37569;50.548;8.778;2023-11-21T04:32:30;7.6;;;4.8;;
51491;SDS011;37569;50.548;8.778;2023-11-21T04:37:30;7.9;;;4.6;;
51491;SDS011;37569;50.548;8.778;2023-11-21T04:42:31;8.2;;;4.8;;
51491;SDS011;37569;50.548;8.778;2023-11-21T04:47:31;7;;;4.8;;
51491;SDS011;37569;50.548;8.778;2023-11-21T04:52:31;7.6;;;5;;
51491;SDS011;37569;50.548;8.778;2023-11-21T04:57:32;8.6;;;5.2;;
51491;SDS011;37569;50.548;8.778;2023-11-21T05:02:32;8.1;;;5.2;;
51491;SDS011;37569;50.548;8.778;2023-11-21T05:07:33;8.2;;;5.2;;
51491;SDS011;37569;50.548;8.778;2023-11-21T05:12:33;9.1;;;6.3;;
51491;SDS011;37569;50.548;8.778;2023-11-21T05:17:33;9.3;;;6.6;;
51491;SDS011;37569;50.548;8.778;2023-11-21T05:22:34;8.7;;;5.9;;
51491;SDS011;37569;50.548;8.778;2023-11-21T05:27:34;10.5;;;6;;
51491;SDS011;37569;50.548;8.778;2023-11-21T05:32:34;13.3;;;8.1;;
51491;SDS011;37569;50.548;8.778;2023-11-21T05:37:35;11.3;;;7.9;;
51491;SDS011;37569;50.548;8.778;2023-11-21T05:42:35;14.3;;;8.9;;
51491;SDS011;37569;50.548;8.778;2023-11-21T05:47:36;14.2;;;9;;
51491;SDS011;37569;50.548;8.778;2023-11-21T05:52:36;13.1;;;8.6;;
51491;SDS011;37569;50.548;8.778;2023-11-21T05:57:36;15.7;;;9.4;;
51491;SDS011;37569;50.548;8.778;2023-11-21T06:02:37;17.6;;;11.1;;
51491;SDS011;37569;50.548;8.778;2023-11-21T06:07:37;16.1;;;10.4;;
51491;SDS011;37569;50.548;8.778;2023-11-21T06:12:37;18.9;;;10;;
51491;SDS011;37569;50.548;8.778;2023-11-21T06:17:37;15.6;;;9.9;;
51491;SDS011;37569;50.548;8.778;2023-11-21T06:22:38;21.6;;;11.8;;
51491;SDS011;37569;50.548;8.778;2023-11-21T06:27:39;23;;;12.3;;
51491;SDS011;37569;50.548;8.778;2023-11-21T06:32:39;30.1;;;14.9;;
51491;SDS011;37569;50.548;8.778;2023-11-21T06:37:39;28.7;;;15.1;;
51491;SDS011;37569;50.548;8.778;2023-11-21T06:42:39;32;;;16.1;;
51491;SDS011;37569;50.548;8.778;2023-11-21T06:47:39;30.2;;;14.8;;
51491;SDS011;37569;50.548;8.778;2023-11-21T06:52:40;27;;;13.9;;
51491;SDS011;37569;50.548;8.778;2023-11-21T06:57:40;28.7;;;14.4;;
51491;SDS011;37569;50.548;8.778;2023-11-21T07:02:40;25.7;;;13;;
51491;SDS011;37569;50.548;8.778;2023-11-21T07:07:41;26.6;;;13.1;;
51491;SDS011;37569;50.548;8.778;2023-11-21T07:12:41;24;;;12.8;;
51491;SDS011;37569;50.548;8.778;2023-11-21T07:17:42;26.5;;;14.3;;
51491;SDS011;37569;50.548;8.778;2023-11-21T07:22:42;27.7;;;14.1;;
51491;SDS011;37569;50.548;8.778;2023-11-21T07:27:42;25.5;;;14.5;;
51491;SDS011;37569;50.548;8.778;2023-11-21T07:32:43;31.5;;;15.1;;
51491;SDS011;37569;50.548;8.778;2023-11-21T07:37:43;27.8;;;14.4;;
51491;SDS011;37569;50.548;8.778;2023-11-21T07:42:44;24.7;;;13.6;;
51491;SDS011;37569;50.548;8.778;2023-11-21T07:47:44;25.7;;;13.7;;
51491;SDS011;37569;50.548;8.778;2023-11-21T07:52:44;27.3;;;14.8;;
51491;SDS011;37569;50.548;8.778;2023-11-21T07:57:45;25.8;;;14.1;;
51491;SDS011;37569;50.548;8.778;2023-11-21T08:02:45;22.4;;;13.5;;
51491;SDS011;37569;50.548;8.778;2023-11-21T08:07:45;20.7;;;13.3;;
51491;SDS011;37569;50.548;8.778;2023-11-21T08:12:46;19.7;;;12.6;;
51491;SDS011;37569;50.548;8.778;2023-11-21T08:17:46;20.9;;;12.4;;
51491;SDS011;37569;50.548;8.778;2023-11-21T08:22:47;20.5;;;12.4;;
51491;SDS011;37569;50.548;8.778;2023-11-21T08:27:47;23.3;;;12.8;;
51491;SDS011;37569;50.548;8.778;2023-11-21T08:32:47;20.7;;;11.9;;
51491;SDS011;37569;50.548;8.778;2023-11-21T08:37:48;20.1;;;13.1;;
51491;SDS011;37569;50.548;8.778;2023-11-21T08:42:48;17.4;;;11.6;;
51491;SDS011;37569;50.548;8.778;2023-11-21T08:47:48;18.1;;;11.2;;
51491;SDS011;37569;50.548;8.778;2023-11-21T08:52:49;15.5;;;9.6;;
51491;SDS011;37569;50.548;8.778;2023-11-21T08:57:49;14.1;;;9.6;;
51491;SDS011;37569;50.548;8.778;2023-11-21T09:02:50;14.5;;;9;;
51491;SDS011;37569;50.548;8.778;2023-11-21T09:07:50;14.2;;;9.3;;
51491;SDS011;37569;50.548;8.778;2023-11-21T09:12:51;15.7;;;10.1;;
51491;SDS011;37569;50.548;8.778;2023-11-21T09:17:51;14.1;;;9.2;;
51491;SDS011;37569;50.548;8.778;2023-11-21T09:22:51;14.8;;;10.3;;
51491;SDS011;37569;50.548;8.778;2023-11-21T09:27:52;14.5;;;9.7;;
51491;SDS011;37569;50.548;8.778;2023-11-21T09:32:52;17;;;9.5;;
51491;SDS011;37569;50.548;8.778;2023-11-21T09:37:53;13.1;;;9.3;;
51491;SDS011;37569;50.548;8.778;2023-11-21T09:42:54;14.7;;;9.3;;
51491;SDS011;37569;50.548;8.778;2023-11-21T09:47:54;13.6;;;9.3;;
51491;SDS011;37569;50.548;8.778;2023-11-21T09:52:55;13.1;;;9.1;;
51491;SDS011;37569;50.548;8.778;2023-11-21T09:57:55;12.4;;;9;;
51491;SDS011;37569;50.548;8.778;2023-11-21T10:02:55;12.3;;;8.3;;
51491;SDS011;37569;50.548;8.778;2023-11-21T10:07:55;14.3;;;8.6;;
51491;SDS011;37569;50.548;8.778;2023-11-21T10:12:56;13.6;;;8.7;;
51491;SDS011;37569;50.548;8.778;2023-11-21T10:17:56;15.6;;;8.6;;
51491;SDS011;37569;50.548;8.778;2023-11-21T10:22:56;13.4;;;8.8;;
51491;SDS011;37569;50.548;8.778;2023-11-21T10:27:57;11.1;;;7.8;;
51491;SDS011;37569;50.548;8.778;2023-11-21T10:32:58;11.7;;;7;;
51491;SDS011;37569;50.548;8.778;2023-11-21T10:37:59;10.1;;;7.2;;
51491;SDS011;37569;50.548;8.778;2023-11-21T10:43:04;14.4;;;8.5;;
51491;SDS011;37569;50.548;8.778;2023-11-21T10:47:59;11.8;;;7.7;;
51491;SDS011;37569;50.548;8.778;2023-11-21T10:53:00;14.3;;;8.4;;
51491;SDS011;37569;50.548;8.778;2023-11-21T10:58:00;14.9;;;9;;
51491;SDS011;37569;50.548;8.778;2023-11-21T11:03:00;14.9;;;8.8;;
51491;SDS011;37569;50.548;8.778;2023-11-21T11:08:02;13.6;;;8.9;;
51491;SDS011;37569;50.548;8.778;2023-11-21T11:13:01;16.2;;;8.6;;
51491;SDS011;37569;50.548;8.778;2023-11-21T11:18:01;18;;;9.3;;
51491;SDS011;37569;50.548;8.778;2023-11-21T11:23:10;11;;;8.4;;
51491;SDS011;37569;50.548;8.778;2023-11-21T11:28:04;15.2;;;9.1;;
51491;SDS011;37569;50.548;8.778;2023-11-21T11:33:04;13.6;;;8.5;;
51491;SDS011;37569;50.548;8.778;2023-11-21T11:38:03;10.9;;;7.6;;
51491;SDS011;37569;50.548;8.778;2023-11-21T11:43:03;13.3;;;7.7;;
51491;SDS011;37569;50.548;8.778;2023-11-21T11:48:05;11;;;8;;
51491;SDS011;37569;50.548;8.778;2023-11-21T11:53:12;12.7;;;7.9;;
51491;SDS011;37569;50.548;8.778;2023-11-21T11:58:05;12.1;;;7.8;;
51491;SDS011;37569;50.548;8.778;2023-11-21T12:03:07;12.6;;;6.9;;
51491;SDS011;37569;50.548;8.778;2023-11-21T12:08:06;10.4;;;6.3;;
51491;SDS011;37569;50.548;8.778;2023-11-21T12:13:06;12;;;6.8;;
51491;SDS011;37569;50.548;8.778;2023-11-21T12:18:07;9.9;;;6.8;;
51491;SDS011;37569;50.548;8.778;2023-11-21T12:23:07;11.6;;;7.5;;
51491;SDS011;37569;50.548;8.778;2023-11-21T12:28:07;12.7;;;6.6;;
51491;SDS011;37569;50.548;8.778;2023-11-21T12:33:08;11.2;;;6.1;;
51491;SDS011;37569;50.548;8.778;2023-11-21T12:38:08;10.3;;;7;;
51491;SDS011;37569;50.548;8.778;2023-11-21T12:43:09;11.5;;;7.2;;
51491;SDS011;37569;50.548;8.778;2023-11-21T12:48:09;10.4;;;6.2;;
51491;SDS011;37569;50.548;8.778;2023-11-21T12:53:10;13.2;;;7.6;;
51491;SDS011;37569;50.548;8.778;2023-11-21T12:58:11;8.7;;;6.6;;
51491;SDS011;37569;50.548;8.778;2023-11-21T13:03:11;12.2;;;6.6;;
51491;SDS011;37569;50.548;8.778;2023-11-21T13:08:12;10.4;;;6.5;;
51491;SDS011;37569;50.548;8.778;2023-11-21T13:13:12;10;;;5.9;;
51491;SDS011;37569;50.548;8.778;2023-11-21T13:18:12;9.9;;;6.1;;
51491;SDS011;37569;50.548;8.778;2023-11-21T13:23:12;10.3;;;6.4;;
51491;SDS011;37569;50.548;8.778;2023-11-21T13:28:13;10.2;;;6.5;;
51491;SDS011;37569;50.548;8.778;2023-11-21T13:33:13;10.9;;;7;;
51491;SDS011;37569;50.548;8.778;2023-11-21T13:38:14;9.7;;;6.4;;
51491;SDS011;37569;50.548;8.778;2023-11-21T13:43:15;10.6;;;6.6;;
51491;SDS011;37569;50.548;8.778;2023-11-21T13:48:14;9.2;;;6.8;;
51491;SDS011;37569;50.548;8.778;2023-11-21T13:53:15;11.4;;;7.3;;
51491;SDS011;37569;50.548;8.778;2023-11-21T13:58:15;10.3;;;6.1;;
51491;SDS011;37569;50.548;8.778;2023-11-21T14:03:16;11.9;;;7.4;;
51491;SDS011;37569;50.548;8.778;2023-11-21T14:08:17;12.7;;;7.2;;
51491;SDS011;37569;50.548;8.778;2023-11-21T14:13:17;15.2;;;8.6;;
51491;SDS011;37569;50.548;8.778;2023-11-21T14:18:17;13.6;;;9;;
51491;SDS011;37569;50.548;8.778;2023-11-21T14:23:17;13.5;;;9.5;;
51491;SDS011;37569;50.548;8.778;2023-11-21T14:28:18;15;;;9.5;;
51491;SDS011;37569;50.548;8.778;2023-11-21T14:33:18;14.3;;;8.7;;
51491;SDS011;37569;50.548;8.778;2023-11-21T14:38:19;14.7;;;9;;
51491;SDS011;37569;50.548;8.778;2023-11-21T14:43:19;15.5;;;8.9;;
51491;SDS011;37569;50.548;8.778;2023-11-21T14:48:19;12.8;;;8.6;;
51491;SDS011;37569;50.548;8.778;2023-11-21T14:53:20;18.6;;;11.3;;
51491;SDS011;37569;50.548;8.778;2023-11-21T14:58:20;20.3;;;11.5;;
51491;SDS011;37569;50.548;8.778;2023-11-21T15:03:21;15.2;;;8.8;;
51491;SDS011;37569;50.548;8.778;2023-11-21T15:08:21;15.6;;;9.3;;
51491;SDS011;37569;50.548;8.778;2023-11-21T15:13:22;14.5;;;8.7;;
51491;SDS011;37569;50.548;8.778;2023-11-21T15:18:22;19.1;;;10.7;;
51491;SDS011;37569;50.548;8.778;2023-11-21T15:23:22;15.5;;;9.2;;
51491;SDS011;37569;50.548;8.778;2023-11-21T15:28:23;19;;;10.9;;
51491;SDS011;37569;50.548;8.778;2023-11-21T15:33:23;33.2;;;20.1;;
51491;SDS011;37569;50.548;8.778;2023-11-21T15:38:23;27.2;;;16;;
51491;SDS011;37569;50.548;8.778;2023-11-21T15:43:24;15.3;;;9;;
51491;SDS011;37569;50.548;8.778;2023-11-21T15:48:24;9.8;;;7.2;;
51491;SDS011;37569;50.548;8.778;2023-11-21T15:53:25;9.4;;;5.5;;
51491;SDS011;37569;50.548;8.778;2023-11-21T15:58:25;9.5;;;5.7;;
51491;SDS011;37569;50.548;8.778;2023-11-21T16:03:25;10;;;6.1;;
51491;SDS011;37569;50.548;8.778;2023-11-21T16:08:26;6.1;;;4.4;;
51491;SDS011;37569;50.548;8.778;2023-11-21T16:13:26;4.9;;;3.8;;
51491;SDS011;37569;50.548;8.778;2023-11-21T16:18:26;5;;;3.7;;
51491;SDS011;37569;50.548;8.778;2023-11-21T16:23:27;6.9;;;3.9;;
51491;SDS011;37569;50.548;8.778;2023-11-21T16:28:27;5.6;;;4.5;;
51491;SDS011;37569;50.548;8.778;2023-11-21T16:33:28;9.3;;;5.5;;
51491;SDS011;37569;50.548;8.778;2023-11-21T16:38:28;8;;;4.7;;
51491;SDS011;37569;50.548;8.778;2023-11-21T16:43:28;5.9;;;4.8;;
51491;SDS011;37569;50.548;8.778;2023-11-21T16:48:29;7.2;;;5.1;;
51491;SDS011;37569;50.548;8.778;2023-11-21T16:53:29;5.3;;;3.7;;
51491;SDS011;37569;50.548;8.778;2023-11-21T16:58:29;6.5;;;4.7;;
51491;SDS011;37569;50.548;8.778;2023-11-21T17:03:30;4.9;;;4;;
51491;SDS011;37569;50.548;8.778;2023-11-21T17:08:30;6.5;;;4.6;;
51491;SDS011;37569;50.548;8.778;2023-11-21T17:13:31;6;;;5;;
51491;SDS011;37569;50.548;8.778;2023-11-21T17:18:31;5.1;;;3.8;;
51491;SDS011;37569;50.548;8.778;2023-11-21T17:23:33;7;;;5.6;;
51491;SDS011;37569;50.548;8.778;2023-11-21T17:28:32;5.2;;;4.7;;
51491;SDS011;37569;50.548;8.778;2023-11-21T17:33:32;6.7;;;5.2;;
51491;SDS011;37569;50.548;8.778;2023-11-21T17:38:32;6;;;5.1;;
51491;SDS011;37569;50.548;8.778;2023-11-21T17:43:33;5.3;;;4.2;;
51491;SDS011;37569;50.548;8.778;2023-11-21T17:48:33;5.1;;;4.2;;
51491;SDS011;37569;50.548;8.778;2023-11-21T17:53:34;6;;;5.4;;
51491;SDS011;37569;50.548;8.778;2023-11-21T17:58:34;6.9;;;4.7;;
51491;SDS011;37569;50.548;8.778;2023-11-21T18:03:34;5.7;;;4.4;;
51491;SDS011;37569;50.548;8.778;2023-11-21T18:08:35;5.1;;;4.4;;
51491;SDS011;37569;50.548;8.778;2023-11-21T18:13:35;5.4;;;4.7;;
51491;SDS011;37569;50.548;8.778;2023-11-21T18:18:35;5.9;;;4.4;;
51491;SDS011;37569;50.548;8.778;2023-11-21T18:23:35;7.7;;;5.1;;
51491;SDS011;37569;50.548;8.778;2023-11-21T18:28:36;6.1;;;4.9;;
51491;SDS011;37569;50.548;8.778;2023-11-21T18:33:36;6.8;;;4.8;;
51491;SDS011;37569;50.548;8.778;2023-11-21T18:38:37;7.6;;;6.2;;
51491;SDS011;37569;50.548;8.778;2023-11-21T18:43:39;7.8;;;6.3;;
51491;SDS011;37569;50.548;8.778;2023-11-21T18:48:37;9.6;;;5.9;;
51491;SDS011;37569;50.548;8.778;2023-11-21T18:53:37;8;;;6.6;;
51491;SDS011;37569;50.548;8.778;2023-11-21T18:58:37;8.3;;;6;;
51491;SDS011;37569;50.548;8.778;2023-11-21T19:03:38;9.2;;;6.1;;
51491;SDS011;37569;50.548;8.778;2023-11-21T19:08:40;7.7;;;5.9;;
51491;SDS011;37569;50.548;8.778;2023-11-21T19:13:38;8.2;;;6.1;;
51491;SDS011;37569;50.548;8.778;2023-11-21T19:18:39;8.6;;;6.1;;
51491;SDS011;37569;50.548;8.778;2023-11-21T19:23:39;8.2;;;5.9;;
51491;SDS011;37569;50.548;8.778;2023-11-21T19:28:39;7.6;;;5.8;;
51491;SDS011;37569;50.548;8.778;2023-11-21T19:33:39;7;;;4.8;;
51491;SDS011;37569;50.548;8.778;2023-11-21T19:38:40;7.8;;;5.1;;
51491;SDS011;37569;50.548;8.778;2023-11-21T19:43:40;7.2;;;5.2;;
51491;SDS011;37569;50.548;8.778;2023-11-21T19:48:40;7.5;;;5.4;;
51491;SDS011;37569;50.548;8.778;2023-11-21T19:53:41;6.9;;;5.2;;
51491;SDS011;37569;50.548;8.778;2023-11-21T19:58:41;5.7;;;5.1;;
51491;SDS011;37569;50.548;8.778;2023-11-21T20:03:41;7.4;;;4.8;;
51491;SDS011;37569;50.548;8.778;2023-11-21T20:08:42;6.8;;;4.7;;
51491;SDS011;37569;50.548;8.778;2023-11-21T20:13:42;6.8;;;5.2;;
51491;SDS011;37569;50.548;8.778;2023-11-21T20:18:42;6;;;5.1;;
51491;SDS011;37569;50.548;8.778;2023-11-21T20:23:42;5.9;;;4.3;;
51491;SDS011;37569;50.548;8.778;2023-11-21T20:28:43;6.2;;;4.7;;
51491;SDS011;37569;50.548;8.778;2023-11-21T20:33:43;6.2;;;5.2;;
51491;SDS011;37569;50.548;8.778;2023-11-21T20:38:43;6.3;;;4.8;;
51491;SDS011;37569;50.548;8.778;2023-11-21T20:43:44;5.1;;;4.2;;
51491;SDS011;37569;50.548;8.778;2023-11-21T20:48:44;5.3;;;4.2;;
51491;SDS011;37569;50.548;8.778;2023-11-21T20:53:44;5.9;;;5;;
51491;SDS011;37569;50.548;8.778;2023-11-21T20:58:44;5.7;;;4.8;;
51491;SDS011;37569;50.548;8.778;2023-11-21T21:03:45;6.9;;;4.6;;
51491;SDS011;37569;50.548;8.778;2023-11-21T21:08:45;5;;;4.5;;
51491;SDS011;37569;50.548;8.778;2023-11-21T21:13:45;4.4;;;3.6;;
51491;SDS011;37569;50.548;8.778;2023-11-21T21:18:45;5.8;;;4.2;;
51491;SDS011;37569;50.548;8.778;2023-11-21T21:23:46;5.4;;;4.4;;
51491;SDS011;37569;50.548;8.778;2023-11-21T21:28:46;6.4;;;5.2;;
51491;SDS011;37569;50.548;8.778;2023-11-21T21:33:46;6;;;4.3;;
51491;SDS011;37569;50.548;8.778;2023-11-21T21:38:46;4.9;;;3.8;;
51491;SDS011;37569;50.548;8.778;2023-11-21T21:43:46;4.5;;;3.8;;
51491;SDS011;37569;50.548;8.778;2023-11-21T21:48:47;5.3;;;3.8;;
51491;SDS011;37569;50.548;8.778;2023-11-21T21:53:47;5.4;;;4.4;;
51491;SDS011;37569;50.548;8.778;2023-11-21T21:58:47;5.4;;;4.2;;
51491;SDS011;37569;50.548;8.778;2023-11-21T22:03:47;5.5;;;4.2;;
51491;SDS011;37569;50.548;8.778;2023-11-21T22:08:47;4.6;;;4.1;;
51491;SDS011;37569;50.548;8.778;2023-11-21T22:13:48;6.7;;;4.4;;
51491;SDS011;37569;50.548;8.778;2023-11-21T22:18:48;4.9;;;4.1;;
51491;SDS011;37569;50.548;8.778;2023-11-21T22:23:48;6.2;;;4.5;;
51491;SDS011;37569;50.548;8.778;2023-11-21T22:28:48;5.6;;;4.2;;
51491;SDS011;37569;50.548;8.778;2023-11-21T22:33:48;7.2;;;4.9;;
51491;SDS011;37569;50.548;8.778;2023-11-21T22:38:49;6.2;;;4.5;;
51491;SDS011;37569;50.548;8.778;2023-11-21T22:43:49;6.3;;;4.4;;
51491;SDS011;37569;50.548;8.778;2023-11-21T22:48:49;5.8;;;4.3;;
51491;SDS011;37569;50.548;8.778;2023-11-21T22:53:49;8.2;;;4.9;;
51491;SDS011;37569;50.548;8.778;2023-11-21T22:58:49;6.2;;;5;;
51491;SDS011;37569;50.548;8.778;2023-11-21T23:03:50;6.4;;;4.8;;
51491;SDS011;37569;50.548;8.778;2023-11-21T23:08:50;5.9;;;4.6;;
51491;SDS011;37569;50.548;8.778;2023-11-21T23:13:50;7;;;4.8;;
51491;SDS011;37569;50.548;8.778;2023-11-21T23:18:50;6.6;;;5;;
51491;SDS011;37569;50.548;8.778;2023-11-21T23:23:50;6.9;;;4.9;;
51491;SDS011;37569;50.548;8.778;2023-11-21T23:28:50;7.3;;;5.2;;
51491;SDS011;37569;50.548;8.778;2023-11-21T23:33:51;6.1;;;5;;
51491;SDS011;37569;50.548;8.778;2023-11-21T23:38:51;7.9;;;5.3;;
51491;SDS011;37569;50.548;8.778;2023-11-21T23:43:51;6;;;4.5;;
51491;SDS011;37569;50.548;8.778;2023-11-21T23:48:51;6;;;4.4;;
51491;SDS011;37569;50.548;8.778;2023-11-21T23:53:51;6.1;;;4.4;;
51491;SDS011;37569;50.548;8.778;2023-11-21T23:58:52;5.4;;;4.5;;
